Time;durP1;ratioP1;P1;durP2;ratioP2;P2;SDS_P1;SDS_P2;PMS_P1;PMS_P2;Temp;Humidity;BMP_temperature;BMP_pressure;BME280_temperature;BME280_humidity;BME280_pressure;Samples;Min_cycle;Max_cycle;Signal;HPM_P1;HPM_P2
2021/09/13 00:00:50;;;;;;;6.28;4.90;;;;;;;14.30;100.00;100851.78;6466022;22;20009;-78
2021/09/13 00:03:20;;;;;;;6.00;4.80;;;;;;;14.30;100.00;100852.63;6464457;22;20404;-78
2021/09/13 00:05:51;;;;;;;7.40;5.07;;;;;;;14.32;100.00;100849.91;6464019;22;20041;-78
2021/09/13 00:08:21;;;;;;;9.70;5.55;;;;;;;14.25;100.00;100844.09;6371649;22;20106;-78
2021/09/13 00:10:51;;;;;;;8.70;5.13;;;;;;;14.30;100.00;100852.63;6464608;22;20005;-78
2021/09/13 00:13:23;;;;;;;7.95;5.38;;;;;;;14.40;100.00;100850.44;6464854;22;20330;-78
2021/09/13 00:15:54;;;;;;;6.40;4.80;;;;;;;14.25;100.00;100845.88;6463625;22;20005;-78
2021/09/13 00:18:24;;;;;;;6.35;5.20;;;;;;;14.27;100.00;100851.91;6371876;23;20035;-78
2021/09/13 00:20:54;;;;;;;8.93;6.03;;;;;;;14.10;100.00;100852.63;6464299;22;20041;-78
2021/09/13 00:23:25;;;;;;;6.72;5.28;;;;;;;14.06;100.00;100851.06;6371968;23;20025;-78
2021/09/13 00:25:55;;;;;;;8.43;6.07;;;;;;;14.03;100.00;100847.72;6463574;22;20001;-78
2021/09/13 00:28:25;;;;;;;7.18;5.78;;;;;;;13.87;100.00;100851.97;6463652;22;20023;-78
2021/09/13 00:30:56;;;;;;;6.78;5.18;;;;;;;13.84;100.00;100858.22;6371835;23;20001;-78
2021/09/13 00:33:27;;;;;;;7.15;5.32;;;;;;;13.82;100.00;100853.94;6370774;23;20005;-79
2021/09/13 00:35:57;;;;;;;10.68;5.78;;;;;;;13.68;100.00;100862.44;6364812;23;20104;-78
2021/09/13 00:38:27;;;;;;;6.97;5.60;;;;;;;13.66;100.00;100863.41;6369583;23;20500;-78
2021/09/13 00:40:58;;;;;;;7.18;5.80;;;;;;;13.58;100.00;100860.28;6369272;23;20009;-78
2021/09/13 00:43:29;;;;;;;8.15;5.55;;;;;;;13.63;100.00;100868.81;6369437;23;20005;-78
2021/09/13 00:45:59;;;;;;;7.40;5.55;;;;;;;13.69;100.00;100868.53;6369331;23;20445;-77
2021/09/13 00:48:29;;;;;;;7.00;5.22;;;;;;;13.68;100.00;100859.81;6463073;22;20234;-77
2021/09/13 00:50:59;;;;;;;8.13;6.15;;;;;;;13.66;100.00;100859.03;6369797;23;20005;-77
2021/09/13 00:53:31;;;;;;;6.80;5.85;;;;;;;13.64;100.00;100863.50;6368938;23;20005;-77
2021/09/13 00:56:02;;;;;;;6.90;5.85;;;;;;;13.66;100.00;100866.91;6368581;23;20001;-77
2021/09/13 00:58:34;;;;;;;8.68;6.10;;;;;;;13.67;100.00;100859.88;6368120;23;20502;-77
2021/09/13 01:01:05;;;;;;;7.60;5.95;;;;;;;13.64;100.00;100855.63;6369899;23;20009;-78
2021/09/13 01:03:35;;;;;;;7.57;6.30;;;;;;;13.82;100.00;100859.19;6462049;22;20539;-78
2021/09/13 01:06:05;;;;;;;9.23;5.68;;;;;;;13.77;100.00;100863.81;6369250;23;20009;-77
2021/09/13 01:08:36;;;;;;;9.07;5.85;;;;;;;13.64;100.00;100858.25;6369350;23;20009;-77
2021/09/13 01:11:07;;;;;;;9.45;6.13;;;;;;;13.48;100.00;100861.59;6369361;23;20464;-77
2021/09/13 01:13:37;;;;;;;6.70;5.43;;;;;;;13.67;100.00;100867.75;6369630;23;20058;-78
2021/09/13 01:16:07;;;;;;;7.95;5.15;;;;;;;13.60;100.00;100864.53;6461070;22;20007;-78
2021/09/13 01:18:38;;;;;;;6.20;4.20;;;;;;;13.61;100.00;100860.16;6462706;22;20088;-78
2021/09/13 01:21:08;;;;;;;5.43;4.75;;;;;;;13.50;100.00;100865.00;6453191;22;20067;-77
2021/09/13 01:23:38;;;;;;;6.85;5.53;;;;;;;13.38;100.00;100865.53;6461279;22;20331;-77
2021/09/13 01:26:09;;;;;;;6.53;5.57;;;;;;;13.45;100.00;100870.47;6369754;23;20032;-77
2021/09/13 01:28:40;;;;;;;9.88;6.45;;;;;;;13.53;100.00;100862.22;6370230;23;20024;-77
2021/09/13 01:31:10;;;;;;;8.38;6.25;;;;;;;13.59;100.00;100869.88;6369985;23;20008;-77
2021/09/13 01:33:41;;;;;;;8.85;5.95;;;;;;;13.58;100.00;100855.03;6461816;22;20151;-77
2021/09/13 01:36:11;;;;;;;7.70;5.75;;;;;;;13.75;100.00;100860.41;6369825;23;19998;-78
2021/09/13 01:38:41;;;;;;;15.68;5.88;;;;;;;13.69;100.00;100868.53;6461370;22;20240;-77
2021/09/13 01:41:12;;;;;;;6.55;5.47;;;;;;;13.66;100.00;100866.03;6369727;23;20008;-78
2021/09/13 01:43:42;;;;;;;7.05;5.80;;;;;;;13.80;100.00;100866.31;6368744;23;20082;-77
2021/09/13 01:46:13;;;;;;;7.78;5.80;;;;;;;13.75;100.00;100866.50;6369304;23;20008;-78
2021/09/13 01:48:43;;;;;;;6.90;5.53;;;;;;;13.83;100.00;100872.28;6462863;22;20357;-78
2021/09/13 01:51:13;;;;;;;12.02;6.43;;;;;;;13.82;100.00;100867.94;6464443;22;20028;-78
2021/09/13 01:53:44;;;;;;;6.75;5.70;;;;;;;13.94;100.00;100869.19;6372095;23;20501;-77
2021/09/13 01:56:14;;;;;;;8.90;6.50;;;;;;;13.96;100.00;100873.47;6372697;23;20067;-78
2021/09/13 01:58:45;;;;;;;8.77;5.18;;;;;;;14.13;100.00;100877.94;6372294;23;19997;-78
2021/09/13 02:01:17;;;;;;;5.78;5.05;;;;;;;14.27;100.00;100879.03;6372627;23;20241;-78
2021/09/13 02:03:48;;;;;;;5.57;4.78;;;;;;;14.32;100.00;100876.22;6463873;22;20006;-78
2021/09/13 02:06:18;;;;;;;7.60;4.65;;;;;;;14.25;100.00;100870.38;6463749;22;19997;-78
2021/09/13 02:08:49;;;;;;;6.85;5.05;;;;;;;14.28;100.00;100877.28;6370532;23;20083;-78
2021/09/13 02:11:19;;;;;;;6.05;5.18;;;;;;;14.23;100.00;100876.66;6370362;23;20008;-78
2021/09/13 02:13:49;;;;;;;7.95;5.22;;;;;;;14.15;100.00;100876.09;6369517;23;20005;-77
2021/09/13 02:16:20;;;;;;;7.32;4.97;;;;;;;14.25;100.00;100874.81;6462805;22;20009;-78
2021/09/13 02:18:50;;;;;;;7.50;5.22;;;;;;;14.24;100.00;100879.19;6370844;23;20041;-78
2021/09/13 02:21:20;;;;;;;6.38;5.03;;;;;;;14.03;100.00;100887.16;6370163;23;20001;-78
2021/09/13 02:23:51;;;;;;;5.68;4.78;;;;;;;13.99;100.00;100888.22;6462031;22;20048;-77
2021/09/13 02:26:21;;;;;;;7.05;4.75;;;;;;;14.06;100.00;100885.25;6369769;23;20380;-78
2021/09/13 02:28:52;;;;;;;6.15;5.07;;;;;;;13.90;100.00;100883.38;6370271;23;20001;-78
2021/09/13 02:31:22;;;;;;;9.30;6.03;;;;;;;13.85;100.00;100880.09;6462892;22;20456;-78
2021/09/13 02:33:53;;;;;;;6.10;5.20;;;;;;;13.94;100.00;100884.94;6369532;23;20001;-78
2021/09/13 02:36:23;;;;;;;6.43;5.43;;;;;;;13.97;100.00;100879.53;6370371;23;20002;-78
2021/09/13 02:38:53;;;;;;;7.43;5.50;;;;;;;14.06;100.00;100879.16;6369633;23;20250;-78
2021/09/13 02:41:23;;;;;;;8.18;5.50;;;;;;;14.21;100.00;100883.72;6370146;23;20007;-77
2021/09/13 02:43:54;;;;;;;7.32;5.70;;;;;;;14.19;100.00;100882.94;6369641;23;20341;-77
2021/09/13 02:46:24;;;;;;;7.10;5.53;;;;;;;14.21;100.00;100874.06;6370319;23;20005;-78
2021/09/13 02:48:55;;;;;;;7.75;6.22;;;;;;;14.32;100.00;100878.84;6461388;22;20376;-78
2021/09/13 02:51:25;;;;;;;7.82;6.10;;;;;;;14.12;100.00;100889.38;6369580;23;20011;-78
2021/09/13 02:53:55;;;;;;;7.55;5.80;;;;;;;14.20;100.00;100887.28;6461239;22;20098;-78
2021/09/13 02:56:25;;;;;;;8.27;6.05;;;;;;;14.14;100.00;100888.41;6462711;22;20085;-78
2021/09/13 02:58:56;;;;;;;8.77;5.80;;;;;;;14.13;100.00;100885.81;6370377;23;20036;-78
2021/09/13 03:01:26;;;;;;;6.40;5.53;;;;;;;14.15;100.00;100887.47;6462419;22;20291;-78
2021/09/13 03:03:56;;;;;;;7.95;5.45;;;;;;;14.07;100.00;100883.50;6369058;23;20317;-78
2021/09/13 03:06:27;;;;;;;6.25;5.15;;;;;;;14.15;100.00;100891.88;6370582;23;20001;-78
2021/09/13 03:08:57;;;;;;;6.55;5.63;;;;;;;14.15;100.00;100890.09;6463093;22;20006;-78
2021/09/13 03:11:27;;;;;;;7.18;5.63;;;;;;;14.34;100.00;100888.38;6369126;23;20325;-78
2021/09/13 03:13:57;;;;;;;9.43;5.63;;;;;;;14.35;100.00;100886.59;6369149;23;20080;-78
2021/09/13 03:16:28;;;;;;;7.53;5.70;;;;;;;14.31;100.00;100887.66;6369906;23;20002;-78
2021/09/13 03:18:58;;;;;;;7.68;5.35;;;;;;;14.28;100.00;100886.00;6370484;23;20032;-78
2021/09/13 03:21:28;;;;;;;9.65;6.13;;;;;;;14.42;100.00;100888.03;6370005;23;20001;-77
2021/09/13 03:23:59;;;;;;;7.82;5.93;;;;;;;14.45;100.00;100893.13;6369228;23;20001;-78
2021/09/13 03:26:29;;;;;;;8.15;6.25;;;;;;;14.52;100.00;100894.56;6369876;23;20446;-78
2021/09/13 03:28:59;;;;;;;8.75;6.05;;;;;;;14.60;100.00;100893.25;6369079;23;20032;-78
2021/09/13 03:31:29;;;;;;;9.65;7.28;;;;;;;14.59;100.00;100893.34;6369884;23;19998;-78
2021/09/13 03:34:00;;;;;;;9.20;7.22;;;;;;;14.60;100.00;100892.44;6368583;23;20329;-78
2021/09/13 03:36:30;;;;;;;11.30;8.60;;;;;;;14.60;100.00;100888.00;6369248;23;20092;-78
2021/09/13 03:39:00;;;;;;;12.32;9.43;;;;;;;14.61;100.00;100888.88;6462856;22;20009;-78
2021/09/13 03:41:31;;;;;;;11.35;8.93;;;;;;;14.63;100.00;100892.28;6462451;22;20009;-78
2021/09/13 03:44:01;;;;;;;11.30;8.97;;;;;;;14.65;100.00;100893.06;6369136;23;20001;-78
2021/09/13 03:46:31;;;;;;;12.93;8.63;;;;;;;14.71;100.00;100887.50;6370274;23;20256;-78
2021/09/13 03:49:02;;;;;;;11.82;7.68;;;;;;;14.71;100.00;100880.47;6462224;22;20028;-78
2021/09/13 03:51:32;;;;;;;12.15;8.10;;;;;;;14.71;100.00;100884.88;6370243;23;20051;-78
2021/09/13 03:54:03;;;;;;;12.10;8.88;;;;;;;14.70;100.00;100883.16;6368510;23;20010;-78
2021/09/13 03:56:34;;;;;;;9.82;7.97;;;;;;;14.77;100.00;100884.59;6461348;22;20023;-78
2021/09/13 03:59:04;;;;;;;13.32;8.88;;;;;;;14.72;100.00;100883.94;6462334;22;20005;-78
2021/09/13 04:01:34;;;;;;;12.82;8.98;;;;;;;14.70;100.00;100884.03;6464711;22;20001;-79
2021/09/13 04:04:06;;;;;;;10.27;7.55;;;;;;;14.63;100.00;100890.47;6465372;22;20215;-79
2021/09/13 04:11:55;;;;;;;9.63;7.80;;;;;;;14.60;100.00;100879.28;6372341;23;20060;-79
2021/09/13 04:14:27;;;;;;;13.05;9.25;;;;;;;14.48;100.00;100880.72;6369284;23;20433;-79
2021/09/13 04:16:58;;;;;;;10.95;7.65;;;;;;;14.41;100.00;100881.06;6369448;23;20040;-79
2021/09/13 04:19:28;;;;;;;12.82;7.65;;;;;;;14.42;100.00;100880.13;6370315;23;20001;-79
2021/09/13 04:21:58;;;;;;;10.23;7.95;;;;;;;14.29;100.00;100881.63;6371482;23;20002;-78
2021/09/13 04:24:29;;;;;;;9.90;7.90;;;;;;;14.28;100.00;100882.53;6464216;22;20014;-78
2021/09/13 04:26:59;;;;;;;11.00;7.97;;;;;;;14.20;100.00;100882.03;6467814;22;20009;-79
2021/09/13 04:29:29;;;;;;;11.10;7.90;;;;;;;14.14;100.00;100883.16;6374010;23;20001;-80
2021/09/13 04:32:00;;;;;;;13.65;7.88;;;;;;;14.17;100.00;100879.53;6374392;23;20291;-80
2021/09/13 04:34:30;;;;;;;9.50;7.50;;;;;;;14.05;100.00;100880.06;6467586;22;20013;-81
2021/09/13 04:37:00;;;;;;;10.90;8.07;;;;;;;13.95;100.00;100891.91;6466997;22;19994;-80
2021/09/13 04:39:31;;;;;;;9.48;7.35;;;;;;;13.89;100.00;100885.13;6467688;22;20085;-80
2021/09/13 04:42:01;;;;;;;13.40;8.15;;;;;;;13.85;100.00;100890.59;6467159;22;20472;-81
2021/09/13 04:44:32;;;;;;;10.68;7.90;;;;;;;13.81;100.00;100887.25;6374695;23;19997;-79
2021/09/13 04:47:02;;;;;;;10.20;7.70;;;;;;;13.32;100.00;100902.53;6374392;23;20001;-79
2021/09/13 04:49:32;;;;;;;8.50;6.72;;;;;;;13.40;100.00;100900.47;6466466;22;20329;-81
2021/09/13 04:52:03;;;;;;;11.83;6.97;;;;;;;13.46;100.00;100898.44;6467434;22;20010;-79
2021/09/13 04:54:33;;;;;;;9.65;6.93;;;;;;;13.40;100.00;100897.84;6466574;22;20321;-81
2021/09/13 04:57:03;;;;;;;8.67;7.27;;;;;;;13.36;100.00;100902.34;6468175;22;20012;-81
2021/09/13 04:59:33;;;;;;;8.52;6.50;;;;;;;13.48;100.00;100896.59;6466623;22;20229;-81
2021/09/13 05:02:04;;;;;;;10.98;7.78;;;;;;;13.47;100.00;100899.25;6465719;22;20143;-81
2021/09/13 05:04:34;;;;;;;9.77;6.65;;;;;;;13.47;100.00;100901.91;6465887;22;20005;-80
2021/09/13 05:07:04;;;;;;;8.50;6.77;;;;;;;13.39;100.00;100904.00;6374482;23;20002;-81
2021/09/13 05:09:34;;;;;;;10.13;7.30;;;;;;;13.67;100.00;100901.91;6375156;23;20257;-79
2021/09/13 05:12:05;;;;;;;7.30;6.20;;;;;;;13.74;100.00;100900.72;6466589;22;20063;-79
2021/09/13 05:14:35;;;;;;;9.50;6.80;;;;;;;13.97;100.00;100905.81;6372604;23;20301;-81
2021/09/13 05:17:05;;;;;;;9.50;6.75;;;;;;;13.77;100.00;100900.59;6467751;22;20322;-81
2021/09/13 05:19:36;;;;;;;9.85;7.00;;;;;;;13.75;100.00;100905.06;6374640;23;20080;-81
2021/09/13 05:22:06;;;;;;;10.20;6.90;;;;;;;13.84;100.00;100899.41;6467146;22;20013;-81
2021/09/13 05:24:36;;;;;;;10.35;7.70;;;;;;;13.77;100.00;100905.84;6466799;22;20211;-80
2021/09/13 05:27:07;;;;;;;9.27;7.03;;;;;;;13.85;100.00;100904.59;6466904;22;20009;-78
2021/09/13 05:29:37;;;;;;;12.38;7.20;;;;;;;14.08;100.00;100911.47;6463446;22;20016;-79
2021/09/13 05:32:07;;;;;;;11.65;7.38;;;;;;;14.15;100.00;100915.53;6465526;22;20001;-79
2021/09/13 05:34:38;;;;;;;8.63;6.88;;;;;;;14.23;100.00;100916.09;6373368;23;20490;-80
2021/09/13 05:37:08;;;;;;;9.20;6.93;;;;;;;14.49;100.00;100905.22;6465871;22;20001;-79
2021/09/13 05:39:39;;;;;;;7.72;5.97;;;;;;;14.52;100.00;100918.22;6466993;22;20081;-81
2021/09/13 05:42:10;;;;;;;10.93;6.85;;;;;;;14.69;100.00;100913.03;6465369;22;20001;-81
2021/09/13 05:44:41;;;;;;;9.25;5.97;;;;;;;14.68;100.00;100916.59;6373624;23;20001;-80
2021/09/13 05:47:11;;;;;;;9.40;7.10;;;;;;;14.71;100.00;100921.69;6467035;22;20005;-80
2021/09/13 05:49:42;;;;;;;8.20;6.30;;;;;;;14.77;100.00;100911.75;6374108;23;20071;-78
2021/09/13 05:52:12;;;;;;;8.50;6.43;;;;;;;14.92;100.00;100921.53;6373312;23;20036;-80
2021/09/13 05:54:43;;;;;;;8.07;6.80;;;;;;;14.85;100.00;100915.72;6374848;23;20072;-80
2021/09/13 05:57:13;;;;;;;9.13;7.60;;;;;;;14.80;100.00;100916.84;6463573;22;20010;-79
2021/09/13 05:59:43;;;;;;;12.60;8.35;;;;;;;14.79;100.00;100919.59;6462726;22;20006;-79
2021/09/13 06:02:16;;;;;;;10.52;7.57;;;;;;;14.81;100.00;100920.34;6461910;22;20024;-79
2021/09/13 06:04:47;;;;;;;11.38;7.82;;;;;;;15.00;100.00;100912.34;6369735;23;20433;-79
2021/09/13 06:07:17;;;;;;;11.18;7.05;;;;;;;15.04;100.00;100921.81;6369037;23;20010;-79
2021/09/13 06:09:47;;;;;;;11.23;7.80;;;;;;;14.97;100.00;100925.66;6370577;23;20096;-79
2021/09/13 06:12:17;;;;;;;9.40;7.53;;;;;;;15.04;100.00;100923.59;6370251;23;20001;-79
2021/09/13 06:14:48;;;;;;;11.70;8.40;;;;;;;15.02;100.00;100923.66;6369692;23;20649;-79
2021/09/13 06:17:18;;;;;;;10.27;8.25;;;;;;;15.10;100.00;100925.94;6463176;22;20421;-79
2021/09/13 06:19:48;;;;;;;10.07;8.40;;;;;;;15.22;100.00;100915.66;6371216;23;20009;-79
2021/09/13 06:22:19;;;;;;;9.38;6.97;;;;;;;15.34;100.00;100915.09;6461643;22;20770;-79
2021/09/13 06:24:49;;;;;;;9.83;7.33;;;;;;;15.32;100.00;100922.22;6368854;23;20005;-80
2021/09/13 06:27:19;;;;;;;11.20;7.77;;;;;;;15.24;100.00;100929.63;6370585;23;20249;-79
2021/09/13 06:29:50;;;;;;;12.27;8.63;;;;;;;15.22;100.00;100930.59;6370278;23;20724;-79
2021/09/13 06:32:21;;;;;;;9.27;6.90;;;;;;;15.32;100.00;100916.94;6461758;22;20020;-79
2021/09/13 06:34:51;;;;;;;10.02;6.63;;;;;;;15.71;100.00;100919.38;6462750;22;20356;-79
2021/09/13 06:37:22;;;;;;;9.48;5.70;;;;;;;15.52;100.00;100922.06;6461805;22;20001;-79
2021/09/13 06:39:57;;;;;;;7.57;5.55;;;;;;;15.65;100.00;100925.81;6370009;23;20072;-79
2021/09/13 06:42:30;;;;;;;10.88;5.72;;;;;;;15.61;100.00;100929.53;6370188;23;20088;-79
2021/09/13 06:45:09;;;;;;;10.18;6.07;;;;;;;15.79;100.00;100928.59;6460976;22;20001;-79
2021/09/13 06:47:45;;;;;;;11.95;6.20;;;;;;;15.76;100.00;100938.44;6462686;22;20002;-79
2021/09/13 06:50:28;;;;;;;8.38;5.38;;;;;;;15.69;100.00;100937.03;6462023;22;20002;-79
2021/09/13 06:52:58;;;;;;;9.02;5.53;;;;;;;15.69;100.00;100943.16;6460895;22;20006;-79
2021/09/13 06:55:29;;;;;;;11.20;6.15;;;;;;;15.61;100.00;100940.06;6369268;23;20107;-79
2021/09/13 06:57:59;;;;;;;10.55;6.00;;;;;;;15.66;100.00;100942.44;6369771;23;20029;-79
2021/09/13 07:00:29;;;;;;;15.15;6.00;;;;;;;15.80;100.00;100951.38;6461707;22;20012;-79
2021/09/13 07:03:00;;;;;;;9.63;5.60;;;;;;;15.86;100.00;100951.06;6368748;23;20002;-79
2021/09/13 07:05:31;;;;;;;7.78;4.97;;;;;;;15.88;100.00;100959.75;6369043;23;20002;-79
2021/09/13 07:08:01;;;;;;;8.82;4.75;;;;;;;16.13;100.00;100960.19;6369661;23;20002;-79
2021/09/13 07:10:32;;;;;;;6.90;4.07;;;;;;;16.14;100.00;100955.75;6369698;23;20004;-79
2021/09/13 07:13:02;;;;;;;7.70;4.43;;;;;;;16.33;100.00;100970.56;6462614;22;20002;-80
2021/09/13 07:15:32;;;;;;;7.57;4.20;;;;;;;16.08;100.00;100972.75;6368683;23;19997;-79
2021/09/13 07:18:03;;;;;;;8.13;4.28;;;;;;;16.43;100.00;100969.19;6369775;23;20239;-80
2021/09/13 07:23:06;;;;;;;6.18;3.47;;;;;;;16.66;100.00;100965.28;6296290;23;20097;-79
2021/09/13 07:25:37;;;;;;;6.57;3.35;;;;;;;17.13;100.00;100972.31;6305789;23;20030;-80
2021/09/13 07:28:07;;;;;;;7.28;3.55;;;;;;;17.64;100.00;100977.31;6306281;23;20068;-81
2021/09/13 07:30:38;;;;;;;4.88;3.05;;;;;;;17.55;100.00;100976.03;6306664;23;20003;-79
2021/09/13 07:33:08;;;;;;;4.30;2.60;;;;;;;17.57;100.00;100978.59;6306760;23;20017;-79
2021/09/13 07:35:38;;;;;;;5.47;3.10;;;;;;;17.64;100.00;100982.59;6305957;23;20347;-79
2021/09/13 07:38:09;;;;;;;6.13;3.53;;;;;;;17.88;98.71;100982.03;6307403;23;20013;-79
2021/09/13 07:40:41;;;;;;;6.53;3.60;;;;;;;17.76;100.00;100985.38;6307154;23;20017;-80
2021/09/13 07:43:12;;;;;;;5.93;3.50;;;;;;;17.84;100.00;100982.28;6307494;23;20700;-81
2021/09/13 07:45:42;;;;;;;6.85;3.70;;;;;;;18.16;97.69;100981.22;6308189;23;20081;-80
2021/09/13 07:48:12;;;;;;;5.70;3.38;;;;;;;17.66;100.00;100988.63;6307934;23;20029;-80
2021/09/13 07:50:44;;;;;;;5.18;3.30;;;;;;;17.78;100.00;100987.91;6308833;23;20354;-80
2021/09/13 07:53:14;;;;;;;8.88;3.17;;;;;;;17.60;100.00;100987.19;6307162;23;20081;-80
2021/09/13 07:55:45;;;;;;;7.53;3.40;;;;;;;17.91;100.00;100995.06;6307841;23;20684;-80
2021/09/13 07:58:15;;;;;;;7.43;3.72;;;;;;;17.87;100.00;100992.66;6308090;23;20025;-80
2021/09/13 08:00:45;;;;;;;4.75;2.97;;;;;;;17.57;100.00;100999.72;6307805;23;20010;-80
2021/09/13 08:03:15;;;;;;;4.70;2.97;;;;;;;17.90;99.79;100997.78;6307718;23;20041;-80
2021/09/13 08:05:46;;;;;;;5.83;3.10;;;;;;;17.63;100.00;101015.25;6307765;23;20077;-79
2021/09/13 08:08:16;;;;;;;5.18;3.38;;;;;;;17.58;100.00;101015.50;6308965;23;20235;-80
2021/09/13 08:10:46;;;;;;;6.50;2.90;;;;;;;17.39;100.00;101009.56;6308089;23;20009;-78
2021/09/13 08:13:17;;;;;;;5.25;2.95;;;;;;;17.43;100.00;101008.47;6308540;23;20030;-78
2021/09/13 08:15:47;;;;;;;6.07;2.97;;;;;;;17.65;100.00;101011.56;6308598;23;20588;-80
2021/09/13 08:18:17;;;;;;;4.28;2.85;;;;;;;17.68;100.00;101016.66;6308933;23;20006;-80
2021/09/13 08:20:48;;;;;;;4.78;2.70;;;;;;;17.66;100.00;101015.91;6308876;23;20133;-80
2021/09/13 08:23:18;;;;;;;5.10;2.70;;;;;;;17.61;100.00;101025.03;6309335;23;20010;-81
2021/09/13 08:25:48;;;;;;;4.18;2.78;;;;;;;17.62;100.00;101034.72;6307835;23;20041;-78
2021/09/13 08:28:20;;;;;;;5.50;2.60;;;;;;;17.47;100.00;101030.28;6308196;23;20018;-80
2021/09/13 08:30:50;;;;;;;6.15;2.58;;;;;;;17.69;100.00;101033.41;6307774;23;20017;-80
2021/09/13 08:33:21;;;;;;;3.97;2.13;;;;;;;17.73;100.00;101037.56;6306722;23;20003;-80
2021/09/13 08:35:53;;;;;;;5.35;2.92;;;;;;;17.84;100.00;101043.94;6308836;23;20082;-80
2021/09/13 08:38:24;;;;;;;4.07;2.60;;;;;;;17.49;100.00;101041.63;6308205;23;20009;-79
2021/09/13 08:40:54;;;;;;;5.47;2.88;;;;;;;17.71;100.00;101042.97;6308822;23;20006;-80
2021/09/13 08:43:24;;;;;;;4.83;2.97;;;;;;;17.90;100.00;101045.38;6308074;23;20170;-80
2021/09/13 08:45:59;;;;;;;5.15;2.45;;;;;;;18.72;98.07;101042.19;6308958;23;20341;-79
2021/09/13 08:49:14;;;;;;;5.75;2.60;;;;;;;19.11;95.96;101045.88;6307891;23;20465;-80
2021/09/13 08:51:32;;;;;;;4.50;2.65;;;;;;;19.92;91.72;101040.56;6287936;23;20011;-79
2021/09/13 08:54:06;;;;;;;5.80;2.50;;;;;;;20.21;90.98;101048.28;6307911;23;20003;-81
2021/09/13 08:56:42;;;;;;;4.82;2.47;;;;;;;20.42;89.95;101052.13;6309180;23;19994;-81
2021/09/13 08:59:15;;;;;;;4.25;2.63;;;;;;;20.18;88.55;101052.94;6308262;23;20010;-78
2021/09/13 09:01:46;;;;;;;2.88;2.00;;;;;;;20.36;89.79;101052.56;6308807;23;20029;-81
2021/09/13 09:04:17;;;;;;;3.92;2.08;;;;;;;20.58;89.77;101047.47;6307810;23;20009;-80
2021/09/13 09:06:48;;;;;;;4.28;2.10;;;;;;;20.63;91.01;101045.34;6307856;23;19998;-80
2021/09/13 09:09:21;;;;;;;3.55;2.22;;;;;;;20.34;91.00;101049.16;6307965;23;20002;-79
2021/09/13 09:12:00;;;;;;;4.88;2.00;;;;;;;21.05;86.18;101045.03;6307717;23;20490;-80
2021/09/13 09:14:48;;;;;;;2.17;1.55;;;;;;;20.30;88.91;101047.66;6272997;23;20377;-80
2021/09/13 09:17:27;;;;;;;2.60;1.48;;;;;;;20.61;87.89;101055.22;6272534;23;19998;-79
2021/09/13 09:20:10;;;;;;;4.82;2.28;;;;;;;20.33;90.90;101057.22;6308547;23;20600;-80
2021/09/13 09:22:40;;;;;;;2.80;1.73;;;;;;;20.38;88.60;101061.28;6307921;23;20085;-78
2021/09/13 09:25:25;;;;;;;5.53;2.00;;;;;;;19.91;90.66;101065.34;6307789;23;20026;-79
2021/09/13 09:27:57;;;;;;;4.68;1.67;;;;;;;19.94;92.90;101060.69;6307791;23;20365;-80
2021/09/13 09:30:36;;;;;;;3.30;1.73;;;;;;;19.68;94.46;101061.59;6307050;23;20013;-80
2021/09/13 09:33:10;;;;;;;4.65;1.83;;;;;;;19.57;94.82;101065.84;6309547;23;20315;-79
2021/09/13 09:35:56;;;;;;;3.78;1.65;;;;;;;19.86;94.24;101068.34;6307293;23;20041;-80
2021/09/13 09:38:32;;;;;;;5.50;2.40;;;;;;;19.57;92.78;101072.03;6308638;23;20312;-80
2021/09/13 09:41:07;;;;;;;3.65;1.85;;;;;;;19.26;95.35;101071.44;6310770;23;20056;-79
2021/09/13 09:44:07;;;;;;;6.07;2.75;;;;;;;19.03;96.29;101074.63;6274046;23;20118;-80
2021/09/13 09:46:41;;;;;;;5.53;2.83;;;;;;;19.12;96.86;101082.84;6308250;23;20011;-80
2021/09/13 09:49:14;;;;;;;4.95;2.63;;;;;;;18.96;97.86;101084.75;6309756;23;20349;-80
2021/09/13 09:51:50;;;;;;;7.35;3.42;;;;;;;18.75;97.11;101072.00;6307219;23;20398;-80
2021/09/13 09:54:23;;;;;;;4.13;2.95;;;;;;;19.12;97.73;101076.72;6306125;23;20006;-80
2021/09/13 09:57:08;;;;;;;4.78;2.90;;;;;;;19.29;95.50;101076.53;6270537;23;20033;-79
2021/09/13 09:59:43;;;;;;;4.90;2.75;;;;;;;19.46;94.10;101081.63;6306542;23;20002;-79
2021/09/13 10:02:18;;;;;;;3.70;2.65;;;;;;;19.81;93.30;101078.38;6270619;23;20358;-80
2021/09/13 10:04:55;;;;;;;4.80;2.60;;;;;;;19.80;91.38;101074.03;6305858;23;20441;-79
2021/09/13 10:07:25;;;;;;;5.15;2.83;;;;;;;19.65;93.34;101075.03;6305715;23;20002;-79
2021/09/13 10:09:57;;;;;;;6.72;2.90;;;;;;;19.26;95.10;101077.56;6270760;23;20016;-80
2021/09/13 10:12:28;;;;;;;4.72;2.53;;;;;;;19.52;93.21;101074.13;6306992;23;20006;-80
2021/09/13 10:15:01;;;;;;;7.18;3.35;;;;;;;19.42;95.13;101070.34;6308168;23;20003;-80
2021/09/13 10:17:33;;;;;;;6.03;2.83;;;;;;;19.67;92.94;101066.97;6308557;23;20418;-80
2021/09/13 10:20:05;;;;;;;6.82;2.80;;;;;;;19.86;93.71;101065.69;6308461;23;20086;-79
2021/09/13 10:22:41;;;;;;;7.30;3.03;;;;;;;20.26;92.85;101062.09;6307340;23;20430;-80
2021/09/13 10:25:13;;;;;;;4.53;2.63;;;;;;;20.34;92.10;101062.44;6306598;23;20018;-78
2021/09/13 10:27:48;;;;;;;6.38;3.47;;;;;;;20.12;90.06;101064.00;6307691;23;20438;-79
2021/09/13 10:30:25;;;;;;;6.05;3.60;;;;;;;20.24;90.59;101069.31;6307765;23;20022;-80
2021/09/13 10:33:10;;;;;;;5.55;3.72;;;;;;;20.36;89.53;101063.19;6306859;23;20343;-79
2021/09/13 10:35:58;;;;;;;5.40;3.47;;;;;;;20.21;89.45;101050.94;6306170;23;20006;-81
2021/09/13 10:38:46;;;;;;;4.47;3.20;;;;;;;20.13;89.69;101058.56;6307643;23;20022;-80
2021/09/13 10:41:55;;;;;;;6.82;3.75;;;;;;;20.73;87.86;101046.41;6307393;23;20010;-80
2021/09/13 10:44:35;;;;;;;10.95;4.60;;;;;;;20.75;88.24;101055.13;6297055;23;20062;-80
2021/09/13 10:47:06;;;;;;;7.75;4.32;;;;;;;20.45;90.06;101056.41;6306400;23;20003;-80
2021/09/13 10:49:36;;;;;;;7.00;4.20;;;;;;;20.36;88.99;101059.66;6304917;23;20389;-78
2021/09/13 10:52:28;;;;;;;8.33;4.37;;;;;;;20.29;90.08;101059.22;6270009;23;20010;-79
2021/09/13 10:55:08;;;;;;;5.72;3.75;;;;;;;20.74;89.09;101056.09;6307429;23;20250;-80
2021/09/13 10:57:56;;;;;;;7.40;3.95;;;;;;;20.80;87.37;101056.50;6307539;23;20003;-79
2021/09/13 11:00:39;;;;;;;6.38;4.00;;;;;;;20.45;90.10;101061.72;6308057;23;20025;-79
2021/09/13 11:03:34;;;;;;;9.30;4.70;;;;;;;20.43;90.79;101064.47;6271597;23;20014;-78
2021/09/13 11:06:13;;;;;;;7.72;4.75;;;;;;;20.52;89.46;101058.53;6307689;23;20072;-80
2021/09/13 11:09:01;;;;;;;7.68;4.85;;;;;;;19.99;90.26;101055.94;6306459;23;20021;-79
2021/09/13 11:11:35;;;;;;;6.22;3.72;;;;;;;20.32;89.15;101059.00;6308564;23;20002;-78
2021/09/13 11:14:11;;;;;;;5.57;3.30;;;;;;;20.41;88.66;101055.75;6308466;23;20007;-79
2021/09/13 11:16:45;;;;;;;5.15;2.47;;;;;;;20.46;88.40;101055.44;6309109;23;20006;-79
2021/09/13 11:19:17;;;;;;;6.40;2.60;;;;;;;20.66;86.83;101050.44;6308012;23;20002;-79
2021/09/13 11:22:00;;;;;;;4.97;2.70;;;;;;;20.80;85.74;101053.00;6307511;23;20033;-79
2021/09/13 11:24:34;;;;;;;8.95;3.00;;;;;;;21.06;86.47;101054.72;6307385;23;20077;-79
2021/09/13 11:27:06;;;;;;;5.93;2.85;;;;;;;21.01;84.57;101056.81;6307637;23;20430;-79
2021/09/13 11:29:39;;;;;;;4.68;2.92;;;;;;;20.89;85.71;101055.03;6308254;23;20014;-80
2021/09/13 11:32:12;;;;;;;5.22;2.50;;;;;;;20.86;86.33;101053.44;6307065;23;20553;-79
2021/09/13 11:34:50;;;;;;;5.40;2.75;;;;;;;20.87;85.37;101051.66;6307673;23;20007;-79
2021/09/13 11:37:30;;;;;;;5.10;2.85;;;;;;;21.20;85.58;101052.75;6307813;23;20025;-78
2021/09/13 11:40:02;;;;;;;6.13;2.90;;;;;;;21.23;84.30;101054.34;6307429;23;20002;-79
2021/09/13 11:42:34;;;;;;;5.30;2.70;;;;;;;21.29;84.91;101056.56;6306929;23;20003;-79
2021/09/13 11:45:08;;;;;;;5.47;2.50;;;;;;;21.07;83.77;101056.41;6307182;23;20034;-79
2021/09/13 11:47:38;;;;;;;5.40;2.47;;;;;;;20.92;83.96;101049.50;6307404;23;20101;-79